Hauptseite
METAR-TAF:

METAR-TAF

Flughäfen :

Preston, England

Breite: 53-44-42N, Länge: 2-53-02W, Höhe: 17 m

Beobachtung

Neuester Wetterbericht von vor 34 Minuten, um 13:20 UTC
Wind 10 kt aus Nordwest, variierte zwischen West/Nordwest und Nord
Temperatur 19°C
Luftfeuchtigkeit 49%
Luftdruck 1036 hPa
Sichtweite 10 km oder mehr
keine Wolken unter 1500 m und keine Kumulonimbus oder Gewitterwolken

METAR: EGNO 271320Z 32010KT 290V350 CAVOK 19/08 Q1036

Zeit: 14:54 (13:54 UTC)

Prognose

Neuester Wetterbericht von vor 54 Minuten, um 13:00 UTC
Gültige Prognose vom 27 um 13 UTC bis 27 um 18 UTC
Wind 8 kt aus Nord/Nordwest
Sichtweite 10 km oder mehr
keine Wolken unter 1500 m und keine Kumulonimbus oder Gewitterwolken

TAF: EGNO 271300Z 2713/2718 34008KT CAVOK

Wetterbeobachtungen und Prognosen von mehr als 4000 Flughäfen (METAR und TAF Bericht).

Die verfügbaren Stationen werden durch gelbe und rote Markierungen auf der Karte dargestellt.

Führen Sie die Maus auf sie, um den Namen der Station zu sehen.

Darauf klicken, um die Beobachtung von Wetterbeobachtungen und Prognosen zu sehen.

Um die Karte zu ändern : klicken Sie auf den grünen Tasten mit einem schwarzen Kreuz Zum Vergrößern, auf den grünen Button mit einem Gedankenstrich zu verkleinern, oder auf die grünen Pfeile für benachbarte Karten.


METAR-TAF: